Homestead Village, Missouri
Current Conditions -  °F | °C
As of 6:15 AM on Thursday 23 Oct 2014 (Local Time) from KGPH Reporting Station
Moderate Rain Moderate Rain  
Wind Chill: 54°   Ceiling: 9500
Heat Index: 54°   Visibility: 10mi
Dew Point: 54°   Wind: 3mph
Humidity: 100%   Direction: 140°SE
Pressure: 30.09"   Gusts: NA
Location:  39.3039°N, 94.2206°W
Report Text: KGPH 231115Z AUTO 14003KT 10SM RA OVC095 12/12 A3009 RMK AO2 LTG DSNT SW
Loading
Personal Weather Stations






























Interactive Weather Map
Tropical Storm Tracking
New forecast layout! Learn more

10-Day Weather Forecast

Advertisements
Track Severe Weather on mobile